Time;durP1;ratioP1;P1;durP2;ratioP2;P2;SDS_P1;SDS_P2;PMS_P1;PMS_P2;Temp;Humidity;BMP_temperature;BMP_pressure;BME280_temperature;BME280_humidity;BME280_pressure;Samples;Min_cycle;Max_cycle;Signal;HPM_P1;HPM_P2
2022/06/18 00:00:28;;;;;;;3.33;2.75;;;;;;;;;;5009964;28;20054;-68
2022/06/18 00:02:54;;;;;;;5.03;3.00;;;;;;;;;;5011221;28;20508;-66
2022/06/18 00:05:22;;;;;;;4.30;2.88;;;;;;;;;;5010564;28;20018;-68
2022/06/18 00:07:53;;;;;;;3.72;2.70;;;;;;;;;;5009990;28;20042;-68
2022/06/18 00:10:23;;;;;;;3.75;2.33;;;;;;;;;;5010216;28;20026;-72
2022/06/18 00:15:36;;;;;;;4.38;2.80;;;;;;;;;;5014267;28;20385;-67
2022/06/18 00:18:03;;;;;;;4.78;3.08;;;;;;;;;;5013736;28;20061;-66
2022/06/18 00:20:32;;;;;;;4.75;2.60;;;;;;;;;;5014322;28;20041;-69
2022/06/18 00:23:00;;;;;;;3.92;2.70;;;;;;;;;;5013702;28;20033;-64
2022/06/18 00:25:35;;;;;;;4.15;3.05;;;;;;;;;;5013416;28;20049;-66
2022/06/18 00:28:06;;;;;;;4.60;2.92;;;;;;;;;;5013994;28;20082;-66
2022/06/18 00:30:32;;;;;;;4.15;2.95;;;;;;;;;;5013892;28;20026;-71
2022/06/18 00:32:58;;;;;;;5.25;3.42;;;;;;;;;;5015199;28;20049;-68
2022/06/18 00:35:24;;;;;;;4.07;2.90;;;;;;;;;;5013706;28;20084;-65
2022/06/18 00:37:54;;;;;;;5.43;3.10;;;;;;;;;;5013290;28;20498;-65
2022/06/18 00:40:36;;;;;;;5.40;2.80;;;;;;;;;;5011886;28;20042;-66
2022/06/18 00:43:06;;;;;;;3.75;3.10;;;;;;;;;;5013191;28;20042;-67
2022/06/18 00:45:32;;;;;;;4.78;3.50;;;;;;;;;;5013267;28;20034;-66
2022/06/18 00:48:23;;;;;;;3.38;2.80;;;;;;;;;;5013122;28;20527;-65
2022/06/18 00:51:08;;;;;;;4.25;2.80;;;;;;;;;;5013340;28;20446;-71
2022/06/18 00:53:42;;;;;;;4.28;3.17;;;;;;;;;;5012758;28;20093;-70
2022/06/18 00:56:31;;;;;;;7.78;3.28;;;;;;;;;;5012012;28;20034;-68
2022/06/18 00:59:27;;;;;;;3.58;2.58;;;;;;;;;;5012805;28;20072;-69
2022/06/18 01:01:55;;;;;;;4.60;3.08;;;;;;;;;;5005920;28;20092;-69
2022/06/18 01:04:33;;;;;;;5.18;3.00;;;;;;;;;;5011544;28;20033;-66
2022/06/18 01:07:13;;;;;;;3.33;2.85;;;;;;;;;;5011590;28;20030;-65
2022/06/18 01:09:39;;;;;;;6.50;3.10;;;;;;;;;;5012626;28;20125;-64
2022/06/18 01:12:06;;;;;;;3.40;2.70;;;;;;;;;;5012932;28;20105;-65
2022/06/18 01:14:32;;;;;;;6.40;3.03;;;;;;;;;;5011755;28;20076;-65
2022/06/18 01:17:02;;;;;;;5.97;3.17;;;;;;;;;;5012875;28;20022;-68
2022/06/18 01:19:32;;;;;;;4.25;2.50;;;;;;;;;;5011457;28;20040;-66
2022/06/18 01:22:01;;;;;;;3.65;2.83;;;;;;;;;;5012891;28;20022;-66
2022/06/18 01:24:38;;;;;;;4.15;2.80;;;;;;;;;;5010605;28;20136;-66
2022/06/18 01:27:08;;;;;;;4.13;2.92;;;;;;;;;;5011086;28;20030;-65
2022/06/18 01:29:35;;;;;;;3.55;2.40;;;;;;;;;;5011204;28;20118;-66
2022/06/18 01:32:02;;;;;;;4.40;2.72;;;;;;;;;;5009338;28;20096;-65
2022/06/18 01:34:29;;;;;;;4.45;2.80;;;;;;;;;;5010951;28;20440;-66
2022/06/18 01:36:59;;;;;;;3.15;2.60;;;;;;;;;;5011300;28;20029;-67
2022/06/18 01:39:31;;;;;;;3.13;2.80;;;;;;;;;;5011781;28;20553;-65
2022/06/18 01:42:02;;;;;;;6.03;2.90;;;;;;;;;;5011095;28;20065;-68
2022/06/18 01:44:33;;;;;;;2.92;2.60;;;;;;;;;;5011190;28;20052;-65
2022/06/18 01:47:06;;;;;;;4.85;2.83;;;;;;;;;;5010707;28;20420;-67
2022/06/18 01:49:40;;;;;;;3.55;2.60;;;;;;;;;;5010403;28;20037;-68
2022/06/18 01:52:08;;;;;;;4.28;2.88;;;;;;;;;;5010574;28;20412;-71
2022/06/18 01:54:43;;;;;;;3.03;2.70;;;;;;;;;;5010605;28;20412;-69
2022/06/18 01:57:15;;;;;;;4.88;2.83;;;;;;;;;;5010503;28;20076;-70
2022/06/18 01:59:48;;;;;;;4.83;3.17;;;;;;;;;;5010692;28;20041;-67
2022/06/18 02:02:16;;;;;;;4.32;2.90;;;;;;;;;;5001746;28;20529;-72
2022/06/18 02:04:44;;;;;;;4.70;3.17;;;;;;;;;;5010298;28;20034;-73
2022/06/18 02:07:12;;;;;;;4.93;3.10;;;;;;;;;;5010493;28;20041;-68
2022/06/18 02:09:50;;;;;;;3.92;3.20;;;;;;;;;;5012019;28;20053;-69
2022/06/18 02:12:19;;;;;;;4.15;3.10;;;;;;;;;;5010517;28;20559;-66
2022/06/18 02:14:50;;;;;;;7.22;3.80;;;;;;;;;;5011804;28;20022;-72
2022/06/18 02:17:18;;;;;;;5.10;3.08;;;;;;;;;;5010440;28;20038;-74
2022/06/18 02:20:10;;;;;;;10.82;4.03;;;;;;;;;;5010303;28;20048;-71
2022/06/18 02:22:43;;;;;;;5.13;3.08;;;;;;;;;;5011033;28;20046;-72
2022/06/18 02:25:09;;;;;;;4.85;3.17;;;;;;;;;;5010113;28;20438;-70
2022/06/18 02:27:36;;;;;;;5.68;3.20;;;;;;;;;;5011678;28;20018;-69
2022/06/18 02:30:02;;;;;;;3.85;2.95;;;;;;;;;;5010036;28;20053;-70
2022/06/18 02:32:44;;;;;;;5.50;3.00;;;;;;;;;;5010492;28;20057;-70
2022/06/18 02:35:15;;;;;;;4.53;3.40;;;;;;;;;;5011601;28;20037;-68
2022/06/18 02:37:41;;;;;;;5.30;3.40;;;;;;;;;;5009860;28;20041;-65
2022/06/18 02:40:18;;;;;;;4.05;3.08;;;;;;;;;;5010550;28;20026;-72
2022/06/18 02:42:44;;;;;;;3.72;3.10;;;;;;;;;;5010044;28;20031;-65
2022/06/18 02:45:10;;;;;;;7.22;3.88;;;;;;;;;;5009784;28;20033;-67
2022/06/18 02:47:36;;;;;;;5.32;3.20;;;;;;;;;;5011336;28;20117;-65
2022/06/18 02:50:10;;;;;;;15.45;3.92;;;;;;;;;;5011223;28;20455;-66
2022/06/18 02:52:44;;;;;;;5.25;3.72;;;;;;;;;;5009127;28;20034;-66
2022/06/18 02:55:21;;;;;;;5.55;3.35;;;;;;;;;;5009160;28;20045;-68
2022/06/18 02:57:55;;;;;;;3.97;3.13;;;;;;;;;;5010058;28;20066;-66
2022/06/18 03:00:21;;;;;;;4.35;3.13;;;;;;;;;;5010097;28;20037;-66
2022/06/18 03:02:47;;;;;;;4.20;3.30;;;;;;;;;;5009727;28;20084;-66
2022/06/18 03:05:24;;;;;;;3.85;3.40;;;;;;;;;;5009542;28;20439;-66
2022/06/18 03:07:49;;;;;;;4.25;3.80;;;;;;;;;;5010842;28;20510;-67
2022/06/18 03:13:03;;;;;;;6.63;4.00;;;;;;;;;;5010786;28;20037;-68
2022/06/18 03:15:33;;;;;;;9.10;4.05;;;;;;;;;;5009451;28;20460;-69
2022/06/18 03:18:00;;;;;;;6.30;4.28;;;;;;;;;;5008989;28;20071;-66
2022/06/18 03:20:37;;;;;;;6.05;3.60;;;;;;;;;;5009289;28;20438;-71
2022/06/18 03:23:05;;;;;;;6.38;4.32;;;;;;;;;;5009446;28;20041;-70
2022/06/18 03:25:31;;;;;;;8.68;4.10;;;;;;;;;;5010744;28;20032;-71
2022/06/18 03:28:01;;;;;;;5.28;3.83;;;;;;;;;;5009621;28;20042;-71
2022/06/18 03:30:28;;;;;;;7.35;3.55;;;;;;;;;;5009036;28;20054;-72
2022/06/18 03:32:54;;;;;;;4.90;3.50;;;;;;;;;;5009381;28;20424;-68
2022/06/18 03:35:20;;;;;;;4.38;3.25;;;;;;;;;;4989834;28;20041;-68
2022/06/18 03:37:46;;;;;;;6.35;3.72;;;;;;;;;;5007805;28;20042;-70
2022/06/18 03:40:13;;;;;;;10.20;4.38;;;;;;;;;;5009034;28;20048;-70
2022/06/18 03:42:40;;;;;;;12.65;4.57;;;;;;;;;;5009043;28;20109;-75
2022/06/18 03:45:09;;;;;;;8.07;3.97;;;;;;;;;;5008710;28;20038;-67
2022/06/18 03:47:35;;;;;;;7.00;3.70;;;;;;;;;;5009533;28;20030;-66
2022/06/18 03:50:01;;;;;;;5.70;3.60;;;;;;;;;;5012479;28;20361;-68
2022/06/18 03:52:28;;;;;;;4.53;3.38;;;;;;;;;;5012873;28;20030;-67
2022/06/18 03:54:54;;;;;;;5.32;3.50;;;;;;;;;;5012723;28;20060;-68
2022/06/18 03:57:21;;;;;;;5.40;4.07;;;;;;;;;;5012439;28;20026;-68
2022/06/18 03:59:47;;;;;;;4.93;3.40;;;;;;;;;;5014010;28;20038;-72
2022/06/18 04:02:14;;;;;;;4.45;3.50;;;;;;;;;;5012865;28;20022;-66
2022/06/18 04:04:42;;;;;;;5.57;3.55;;;;;;;;;;5012872;28;20046;-66
2022/06/18 04:07:18;;;;;;;7.95;3.53;;;;;;;;;;5012477;28;20026;-70
2022/06/18 04:10:03;;;;;;;7.28;3.63;;;;;;;;;;5008241;28;20053;-67
2022/06/18 04:12:30;;;;;;;5.53;3.63;;;;;;;;;;5007836;28;20065;-66
2022/06/18 04:15:19;;;;;;;6.72;3.15;;;;;;;;;;5012538;28;20037;-67
2022/06/18 04:18:06;;;;;;;3.88;2.65;;;;;;;;;;5012066;28;20040;-66
2022/06/18 04:20:35;;;;;;;6.20;2.97;;;;;;;;;;5012207;28;20037;-66
2022/06/18 04:23:04;;;;;;;4.15;3.08;;;;;;;;;;5012700;28;20030;-65
2022/06/18 04:25:36;;;;;;;4.70;2.97;;;;;;;;;;5011813;28;20038;-69
2022/06/18 04:28:02;;;;;;;4.15;2.72;;;;;;;;;;5013286;28;20077;-68
2022/06/18 04:30:32;;;;;;;4.15;3.03;;;;;;;;;;5012879;28;20030;-68
2022/06/18 04:33:02;;;;;;;5.30;2.88;;;;;;;;;;5012113;28;20119;-69
2022/06/18 04:35:32;;;;;;;6.20;3.25;;;;;;;;;;5012129;28;20092;-70
2022/06/18 04:38:12;;;;;;;4.13;2.40;;;;;;;;;;4997453;28;20128;-68
2022/06/18 04:40:42;;;;;;;4.70;3.28;;;;;;;;;;5011814;28;20092;-70
2022/06/18 04:43:16;;;;;;;4.18;3.13;;;;;;;;;;5011959;28;20124;-68
2022/06/18 04:45:48;;;;;;;5.72;3.35;;;;;;;;;;5003828;28;20045;-71
2022/06/18 04:48:20;;;;;;;5.85;3.08;;;;;;;;;;5011039;28;20038;-65
2022/06/18 04:50:46;;;;;;;4.65;2.88;;;;;;;;;;5011022;28;20045;-68
2022/06/18 04:53:13;;;;;;;7.30;3.90;;;;;;;;;;5013557;28;20049;-70
2022/06/18 04:55:42;;;;;;;7.47;3.53;;;;;;;;;;5014606;28;20038;-69
2022/06/18 04:58:09;;;;;;;6.85;3.58;;;;;;;;;;5023287;28;20065;-71
2022/06/18 05:00:40;;;;;;;3.45;2.95;;;;;;;;;;5030682;28;20037;-67
2022/06/18 05:03:25;;;;;;;6.10;3.63;;;;;;;;;;5010801;28;20033;-69
2022/06/18 05:06:11;;;;;;;4.65;3.83;;;;;;;;;;5000870;28;20050;-69
2022/06/18 05:09:03;;;;;;;5.32;3.80;;;;;;;;;;4995876;28;20503;-65
2022/06/18 05:11:49;;;;;;;5.53;3.30;;;;;;;;;;4995198;28;20038;-69
2022/06/18 05:14:35;;;;;;;8.32;3.45;;;;;;;;;;4995719;28;20045;-72
2022/06/18 05:17:12;;;;;;;6.53;3.90;;;;;;;;;;4997210;28;20042;-72
2022/06/18 05:19:40;;;;;;;10.95;4.05;;;;;;;;;;4994037;28;20096;-68
2022/06/18 05:22:06;;;;;;;6.75;3.70;;;;;;;;;;4994288;28;20026;-65
2022/06/18 05:24:32;;;;;;;3.92;3.28;;;;;;;;;;4995301;28;20038;-66
2022/06/18 05:27:03;;;;;;;4.93;3.22;;;;;;;;;;4994197;28;20105;-66
2022/06/18 05:29:29;;;;;;;10.10;3.83;;;;;;;;;;4994015;28;20041;-67
2022/06/18 05:31:56;;;;;;;6.75;3.35;;;;;;;;;;5002127;28;20069;-68
2022/06/18 05:34:26;;;;;;;7.60;3.67;;;;;;;;;;4993769;28;20073;-67
2022/06/18 05:36:53;;;;;;;6.78;3.58;;;;;;;;;;4993782;28;20536;-68
2022/06/18 05:39:20;;;;;;;4.70;3.40;;;;;;;;;;4993778;28;20400;-67
2022/06/18 05:41:46;;;;;;;5.70;3.38;;;;;;;;;;4993787;28;20130;-69
2022/06/18 05:44:12;;;;;;;8.27;3.30;;;;;;;;;;4995253;28;20377;-66
2022/06/18 05:46:38;;;;;;;9.35;3.90;;;;;;;;;;4994894;28;20485;-69
2022/06/18 05:49:04;;;;;;;11.55;4.80;;;;;;;;;;4993621;28;20033;-72
2022/06/18 05:51:30;;;;;;;5.82;3.65;;;;;;;;;;4994947;28;20030;-69
2022/06/18 05:53:57;;;;;;;6.03;3.78;;;;;;;;;;4999173;28;20034;-68
2022/06/18 05:56:41;;;;;;;6.55;3.67;;;;;;;;;;5016870;28;20049;-70
2022/06/18 05:59:36;;;;;;;6.20;3.60;;;;;;;;;;5013560;28;20038;-72
2022/06/18 06:02:13;;;;;;;4.72;3.90;;;;;;;;;;4997026;28;20058;-67
2022/06/18 06:04:39;;;;;;;6.85;3.88;;;;;;;;;;4994803;28;20568;-68
2022/06/18 06:07:06;;;;;;;10.93;4.15;;;;;;;;;;4993442;28;20393;-68
2022/06/18 06:12:17;;;;;;;6.30;4.05;;;;;;;;;;5005915;28;20072;-68
2022/06/18 06:14:42;;;;;;;7.80;3.95;;;;;;;;;;5032781;28;20065;-73
2022/06/18 06:17:14;;;;;;;7.78;3.42;;;;;;;;;;5032356;28;20430;-68
2022/06/18 06:19:41;;;;;;;7.55;4.45;;;;;;;;;;5032521;28;20037;-69
2022/06/18 06:22:06;;;;;;;9.10;5.47;;;;;;;;;;5002534;28;20024;-68
2022/06/18 06:24:32;;;;;;;8.45;4.03;;;;;;;;;;4994529;28;20109;-65
2022/06/18 06:26:58;;;;;;;9.40;3.83;;;;;;;;;;4994421;28;20022;-72
2022/06/18 06:29:24;;;;;;;7.05;4.30;;;;;;;;;;5002791;28;20080;-71
2022/06/18 06:31:49;;;;;;;4.70;3.88;;;;;;;;;;5006269;28;20496;-69
2022/06/18 06:34:15;;;;;;;5.75;3.97;;;;;;;;;;4993390;28;20055;-70
2022/06/18 06:36:41;;;;;;;6.30;3.80;;;;;;;;;;4993733;28;20538;-70
2022/06/18 06:39:07;;;;;;;7.22;3.95;;;;;;;;;;4994141;28;20489;-70
2022/06/18 06:41:33;;;;;;;9.80;4.53;;;;;;;;;;4994640;28;20018;-72
2022/06/18 06:43:59;;;;;;;5.05;3.92;;;;;;;;;;4995563;28;20030;-70
2022/06/18 06:46:24;;;;;;;8.25;4.05;;;;;;;;;;4994745;28;20495;-71
2022/06/18 06:48:50;;;;;;;6.47;4.03;;;;;;;;;;4993449;28;20030;-74
2022/06/18 06:51:28;;;;;;;14.02;4.00;;;;;;;;;;4992223;28;20775;-71
2022/06/18 06:53:54;;;;;;;6.40;3.95;;;;;;;;;;4992402;28;20031;-72
2022/06/18 06:59:08;;;;;;;5.18;4.10;;;;;;;;;;4992351;28;20035;-75
2022/06/18 07:01:34;;;;;;;6.47;4.03;;;;;;;;;;4993291;28;20027;-77
2022/06/18 07:04:05;;;;;;;6.05;4.60;;;;;;;;;;4993340;28;20057;-73
2022/06/18 07:06:33;;;;;;;7.88;4.22;;;;;;;;;;5010454;28;20061;-77
2022/06/18 07:08:59;;;;;;;4.60;3.85;;;;;;;;;;5024183;28;20033;-75
2022/06/18 07:11:25;;;;;;;5.38;3.92;;;;;;;;;;5008711;28;20042;-73
2022/06/18 07:13:51;;;;;;;5.15;4.15;;;;;;;;;;5000406;28;20031;-76
2022/06/18 07:16:18;;;;;;;7.40;4.53;;;;;;;;;;4996303;28;20072;-75
2022/06/18 07:18:44;;;;;;;6.85;3.95;;;;;;;;;;4992622;28;20030;-74
2022/06/18 07:21:13;;;;;;;9.13;4.07;;;;;;;;;;4992670;28;20038;-75
2022/06/18 07:23:39;;;;;;;10.32;4.43;;;;;;;;;;5003052;28;20046;-74
2022/06/18 07:26:05;;;;;;;5.15;4.25;;;;;;;;;;4992802;28;20078;-72
2022/06/18 07:28:31;;;;;;;11.88;4.40;;;;;;;;;;4992500;28;20031;-72
2022/06/18 07:30:57;;;;;;;5.97;4.18;;;;;;;;;;5014710;28;20556;-72
2022/06/18 07:33:26;;;;;;;6.65;3.70;;;;;;;;;;5000107;28;20358;-76
2022/06/18 07:35:53;;;;;;;4.82;3.85;;;;;;;;;;4992517;28;20039;-72
2022/06/18 07:38:19;;;;;;;10.05;4.43;;;;;;;;;;5003031;28;20377;-72
2022/06/18 07:40:51;;;;;;;6.45;4.70;;;;;;;;;;4992768;28;20037;-73
2022/06/18 07:43:20;;;;;;;7.55;4.32;;;;;;;;;;4992661;28;20034;-79
2022/06/18 07:45:46;;;;;;;5.85;4.88;;;;;;;;;;4993113;28;20506;-71
2022/06/18 07:48:14;;;;;;;7.35;4.30;;;;;;;;;;4998303;28;20188;-73
2022/06/18 07:50:46;;;;;;;5.95;4.70;;;;;;;;;;5004683;28;20034;-73
2022/06/18 07:53:17;;;;;;;7.03;4.63;;;;;;;;;;5002474;28;20036;-73
2022/06/18 07:55:44;;;;;;;9.05;4.68;;;;;;;;;;4999254;28;20034;-73
2022/06/18 07:58:09;;;;;;;6.97;4.50;;;;;;;;;;5008201;28;20120;-74
2022/06/18 08:00:39;;;;;;;5.78;4.97;;;;;;;;;;5005012;28;20141;-74
2022/06/18 08:03:07;;;;;;;7.38;4.82;;;;;;;;;;5001730;28;20046;-72
2022/06/18 08:05:33;;;;;;;5.97;4.93;;;;;;;;;;4995772;28;20026;-71
2022/06/18 08:07:59;;;;;;;7.68;4.63;;;;;;;;;;5011390;28;20136;-72
2022/06/18 08:10:24;;;;;;;9.57;5.15;;;;;;;;;;5002796;28;20109;-71
2022/06/18 08:12:51;;;;;;;10.30;4.90;;;;;;;;;;5004883;28;20495;-70
2022/06/18 08:15:18;;;;;;;6.68;5.45;;;;;;;;;;5006692;28;20038;-69
2022/06/18 08:17:44;;;;;;;6.60;5.00;;;;;;;;;;5017488;28;20033;-71
2022/06/18 08:20:11;;;;;;;9.18;5.00;;;;;;;;;;5004040;28;20117;-72
2022/06/18 08:22:40;;;;;;;6.35;4.18;;;;;;;;;;5005339;28;20053;-73
2022/06/18 08:25:07;;;;;;;6.25;4.90;;;;;;;;;;5009098;28;20049;-72
2022/06/18 08:27:34;;;;;;;8.45;4.50;;;;;;;;;;5010300;28;20026;-72
2022/06/18 08:30:00;;;;;;;13.50;4.93;;;;;;;;;;5011349;28;20034;-71
2022/06/18 08:32:26;;;;;;;8.48;5.30;;;;;;;;;;5011341;28;20080;-72
2022/06/18 08:34:52;;;;;;;16.60;5.65;;;;;;;;;;5011077;28;20046;-72
2022/06/18 08:37:18;;;;;;;10.48;4.78;;;;;;;;;;5013638;28;20133;-71
2022/06/18 08:39:44;;;;;;;8.07;4.97;;;;;;;;;;5015316;28;20531;-77
2022/06/18 08:42:19;;;;;;;6.18;4.60;;;;;;;;;;5015267;28;20034;-73
2022/06/18 08:45:01;;;;;;;6.25;5.00;;;;;;;;;;5015298;28;20034;-70
2022/06/18 08:47:54;;;;;;;6.03;4.50;;;;;;;;;;5015000;28;20045;-79
2022/06/18 08:50:57;;;;;;;6.25;5.00;;;;;;;;;;5015241;28;20370;-70
2022/06/18 08:53:36;;;;;;;6.82;5.38;;;;;;;;;;5013663;28;20123;-74
2022/06/18 08:56:27;;;;;;;7.50;5.57;;;;;;;;;;5014552;28;20476;-74
2022/06/18 08:59:06;;;;;;;7.30;5.20;;;;;;;;;;5014697;28;20054;-75
2022/06/18 09:01:39;;;;;;;7.70;5.60;;;;;;;;;;5014899;28;20045;-75
2022/06/18 09:04:31;;;;;;;7.15;5.22;;;;;;;;;;5014852;28;20121;-76
2022/06/18 09:07:15;;;;;;;7.43;4.72;;;;;;;;;;5014705;28;20040;-71
2022/06/18 09:10:17;;;;;;;9.07;5.05;;;;;;;;;;5014660;28;20037;-73
2022/06/18 09:12:52;;;;;;;7.90;5.03;;;;;;;;;;5014918;28;20092;-74
2022/06/18 09:15:21;;;;;;;8.90;5.05;;;;;;;;;;5014585;28;20069;-72
2022/06/18 09:18:26;;;;;;;7.22;4.78;;;;;;;;;;4994855;28;20054;-71
2022/06/18 09:20:59;;;;;;;6.28;5.07;;;;;;;;;;4994795;28;20026;-71
2022/06/18 09:23:30;;;;;;;9.63;5.15;;;;;;;;;;4995242;28;20038;-73
2022/06/18 09:25:58;;;;;;;7.07;5.05;;;;;;;;;;4995409;28;20073;-71
2022/06/18 09:28:26;;;;;;;7.15;5.25;;;;;;;;;;4994675;28;20030;-72
2022/06/18 09:31:03;;;;;;;8.93;5.10;;;;;;;;;;4994660;28;20034;-71
2022/06/18 09:33:29;;;;;;;7.10;4.80;;;;;;;;;;4994883;28;20135;-71
2022/06/18 09:36:17;;;;;;;5.88;4.72;;;;;;;;;;4994871;28;20533;-72
2022/06/18 09:38:58;;;;;;;9.63;5.53;;;;;;;;;;4994454;28;20030;-72
2022/06/18 09:42:00;;;;;;;7.65;4.80;;;;;;;;;;5013436;28;20034;-71
2022/06/18 09:44:48;;;;;;;5.70;5.10;;;;;;;;;;4996249;28;20061;-71
2022/06/18 09:47:22;;;;;;;6.43;4.85;;;;;;;;;;4996986;28;20500;-71
2022/06/18 09:49:48;;;;;;;7.35;4.40;;;;;;;;;;5006770;28;20038;-74
2022/06/18 09:52:18;;;;;;;8.32;4.55;;;;;;;;;;4993345;28;20025;-70
2022/06/18 09:54:52;;;;;;;9.30;5.10;;;;;;;;;;4998671;28;20326;-70
2022/06/18 09:57:22;;;;;;;4.80;4.25;;;;;;;;;;5004389;28;20118;-72
2022/06/18 10:00:04;;;;;;;6.53;4.60;;;;;;;;;;5002723;28;20076;-73
2022/06/18 10:02:47;;;;;;;9.88;4.63;;;;;;;;;;5003550;28;20046;-70
2022/06/18 10:08:08;;;;;;;7.97;4.30;;;;;;;;;;5010954;28;20038;-70
2022/06/18 10:10:35;;;;;;;5.72;4.00;;;;;;;;;;5006850;28;20041;-71
2022/06/18 10:13:05;;;;;;;7.13;4.13;;;;;;;;;;5001645;28;20388;-72
2022/06/18 10:15:31;;;;;;;6.47;4.65;;;;;;;;;;5011338;28;20026;-70
2022/06/18 10:18:12;;;;;;;6.78;4.32;;;;;;;;;;4992623;28;20523;-71
2022/06/18 10:20:44;;;;;;;7.10;4.65;;;;;;;;;;4996926;28;20090;-70
2022/06/18 10:23:58;;;;;;;5.82;4.40;;;;;;;;;;5011728;28;20050;-70
2022/06/18 10:26:42;;;;;;;;;;;;;;;;;;5012029;28;20519;-74
2022/06/18 10:29:22;;;;;;;5.57;3.88;;;;;;;;;;5011996;28;19924;-78
2022/06/18 10:32:27;;;;;;;6.68;4.10;;;;;;;;;;5012101;28;20384;-77
2022/06/18 10:35:16;;;;;;;7.68;4.90;;;;;;;;;;5009714;28;20042;-79
2022/06/18 10:37:51;;;;;;;6.20;4.78;;;;;;;;;;5010128;28;20062;-72
2022/06/18 10:40:44;;;;;;;4.80;3.97;;;;;;;;;;5010682;28;20040;-72
2022/06/18 10:43:33;;;;;;;6.25;4.13;;;;;;;;;;5012219;28;20437;-74
2022/06/18 10:46:09;;;;;;;5.32;4.40;;;;;;;;;;4992293;28;20485;-73
2022/06/18 10:48:35;;;;;;;7.00;4.13;;;;;;;;;;4997642;28;20038;-75
2022/06/18 10:51:02;;;;;;;6.70;4.47;;;;;;;;;;5011512;28;20476;-70
2022/06/18 10:53:45;;;;;;;7.15;4.20;;;;;;;;;;5011911;28;20042;-74
2022/06/18 10:56:15;;;;;;;;;;;;;;;;;;5008534;28;20034;-71
2022/06/18 10:58:54;;;;;;;6.70;4.00;;;;;;;;;;5011041;28;20011;-71
2022/06/18 11:01:26;;;;;;;5.63;4.20;;;;;;;;;;5003551;28;20503;-71
2022/06/18 11:03:55;;;;;;;5.15;4.38;;;;;;;;;;5009869;28;20115;-71
2022/06/18 11:06:22;;;;;;;5.88;3.95;;;;;;;;;;5011799;28;20037;-72
2022/06/18 11:08:52;;;;;;;7.78;4.43;;;;;;;;;;5010453;28;20080;-72
2022/06/18 11:11:23;;;;;;;5.35;4.00;;;;;;;;;;5017249;28;20034;-75
2022/06/18 11:13:50;;;;;;;6.65;4.25;;;;;;;;;;5029498;28;20435;-75
2022/06/18 11:16:22;;;;;;;6.88;4.00;;;;;;;;;;5022822;28;20069;-72
2022/06/18 11:18:58;;;;;;;7.65;4.45;;;;;;;;;;5011443;28;20065;-77
2022/06/18 11:21:35;;;;;;;6.18;4.35;;;;;;;;;;5003577;28;20134;-73
2022/06/18 11:24:10;;;;;;;7.15;3.88;;;;;;;;;;4992147;28;20034;-72
2022/06/18 11:26:41;;;;;;;6.85;4.32;;;;;;;;;;4992451;28;20125;-74
2022/06/18 11:29:19;;;;;;;6.00;4.18;;;;;;;;;;4992364;28;20485;-71
2022/06/18 11:31:47;;;;;;;7.55;3.97;;;;;;;;;;4992010;28;20041;-72
2022/06/18 11:34:25;;;;;;;8.60;4.38;;;;;;;;;;4991626;28;20045;-69
2022/06/18 11:36:57;;;;;;;8.60;4.20;;;;;;;;;;4991493;28;20117;-70
2022/06/18 11:39:36;;;;;;;5.60;4.40;;;;;;;;;;5002605;28;20030;-70
2022/06/18 11:42:34;;;;;;;6.50;4.10;;;;;;;;;;4990747;28;20038;-76
2022/06/18 11:45:06;;;;;;;6.63;4.40;;;;;;;;;;4990796;28;20477;-72
2022/06/18 11:47:55;;;;;;;6.20;4.63;;;;;;;;;;4992072;28;20039;-70
2022/06/18 11:50:30;;;;;;;8.10;4.53;;;;;;;;;;4991659;28;20041;-75
2022/06/18 11:53:12;;;;;;;9.63;5.10;;;;;;;;;;5009807;28;20026;-72
2022/06/18 11:55:43;;;;;;;7.10;4.57;;;;;;;;;;5011140;28;20084;-76
2022/06/18 11:58:19;;;;;;;5.35;4.80;;;;;;;;;;5010458;28;20580;-77
2022/06/18 12:00:58;;;;;;;10.35;5.00;;;;;;;;;;5012600;28;20030;-76
2022/06/18 12:03:37;;;;;;;11.13;5.22;;;;;;;;;;5012457;28;20109;-76
2022/06/18 12:06:11;;;;;;;7.07;4.70;;;;;;;;;;5011478;28;20034;-77
2022/06/18 12:08:38;;;;;;;6.93;5.50;;;;;;;;;;5011670;28;20049;-76
2022/06/18 12:11:09;;;;;;;6.35;4.85;;;;;;;;;;5016473;28;20014;-79
2022/06/18 12:13:43;;;;;;;9.20;5.18;;;;;;;;;;5016330;28;20030;-77
2022/06/18 12:16:23;;;;;;;7.63;4.85;;;;;;;;;;5016165;28;20484;-77
2022/06/18 12:19:04;;;;;;;9.40;5.25;;;;;;;;;;5016177;28;20507;-78
2022/06/18 12:21:38;;;;;;;6.80;5.00;;;;;;;;;;5016247;28;20030;-72
2022/06/18 12:24:29;;;;;;;9.85;4.80;;;;;;;;;;5016206;28;20489;-73
2022/06/18 12:27:12;;;;;;;9.18;4.97;;;;;;;;;;5015958;28;20032;-74
2022/06/18 12:30:00;;;;;;;9.27;4.35;;;;;;;;;;5016106;28;20044;-74
2022/06/18 12:32:50;;;;;;;8.65;4.30;;;;;;;;;;5016051;28;20045;-72
2022/06/18 12:35:32;;;;;;;7.43;4.22;;;;;;;;;;5016043;28;20061;-72
2022/06/18 12:37:58;;;;;;;12.48;4.90;;;;;;;;;;5015724;28;20034;-72
2022/06/18 12:40:42;;;;;;;7.05;4.65;;;;;;;;;;5015821;28;20033;-72
2022/06/18 12:43:10;;;;;;;8.40;4.15;;;;;;;;;;5015683;28;20443;-72
2022/06/18 12:45:42;;;;;;;6.97;4.47;;;;;;;;;;5013277;28;20072;-71
2022/06/18 12:48:25;;;;;;;7.38;4.80;;;;;;;;;;5015472;28;20057;-72
2022/06/18 12:51:03;;;;;;;7.13;4.78;;;;;;;;;;5015662;28;20113;-73
2022/06/18 12:53:58;;;;;;;6.70;4.50;;;;;;;;;;5015117;28;20034;-72
2022/06/18 12:56:33;;;;;;;7.03;5.25;;;;;;;;;;5009827;28;20555;-73
2022/06/18 12:59:11;;;;;;;6.50;4.97;;;;;;;;;;5015058;28;20491;-75
2022/06/18 13:01:42;;;;;;;8.38;4.85;;;;;;;;;;5014973;28;20368;-72
2022/06/18 13:04:26;;;;;;;8.85;6.78;;;;;;;;;;5015784;28;20132;-76
2022/06/18 13:07:00;;;;;;;6.30;4.60;;;;;;;;;;5015001;28;20034;-75
2022/06/18 13:10:10;;;;;;;8.45;4.90;;;;;;;;;;5014978;28;20088;-71
2022/06/18 13:13:18;;;;;;;7.13;5.25;;;;;;;;;;5009927;28;20200;-70
2022/06/18 13:15:50;;;;;;;7.85;5.63;;;;;;;;;;5007377;28;20530;-70
2022/06/18 13:18:46;;;;;;;5.47;4.93;;;;;;;;;;5016887;28;20060;-72
2022/06/18 13:21:12;;;;;;;7.88;5.05;;;;;;;;;;5019500;28;20395;-72
2022/06/18 13:29:23;;;;;;;7.95;5.18;;;;;;;;;;5034369;28;20033;-71
2022/06/18 13:32:38;;;;;;;5.55;4.93;;;;;;;;;;5034363;28;20044;-71
2022/06/18 13:35:07;;;;;;;6.53;4.20;;;;;;;;;;5022116;28;20045;-73
2022/06/18 13:37:57;;;;;;;7.20;4.85;;;;;;;;;;5033753;28;20503;-70
2022/06/18 13:40:37;;;;;;;9.38;4.95;;;;;;;;;;5029044;28;20038;-70
2022/06/18 13:43:21;;;;;;;6.25;5.10;;;;;;;;;;5013919;28;20396;-72
2022/06/18 13:46:01;;;;;;;6.15;4.85;;;;;;;;;;5013971;28;20038;-73
2022/06/18 13:48:45;;;;;;;9.98;4.72;;;;;;;;;;5013664;28;20084;-74
2022/06/18 13:51:11;;;;;;;5.68;4.32;;;;;;;;;;5013919;28;20053;-72
2022/06/18 13:53:42;;;;;;;8.55;4.72;;;;;;;;;;5014081;28;20083;-72
2022/06/18 13:56:35;;;;;;;7.80;5.10;;;;;;;;;;5013983;28;20169;-72
2022/06/18 13:59:02;;;;;;;7.00;5.93;;;;;;;;;;5013662;28;20052;-72
2022/06/18 14:01:31;;;;;;;9.20;4.90;;;;;;;;;;5013781;28;20337;-72
2022/06/18 14:04:02;;;;;;;6.43;4.80;;;;;;;;;;5013932;28;20507;-72
2022/06/18 14:06:29;;;;;;;8.77;4.63;;;;;;;;;;5013819;28;20034;-73
2022/06/18 14:08:59;;;;;;;8.18;4.70;;;;;;;;;;5014137;28;20083;-72
2022/06/18 14:11:33;;;;;;;5.78;4.57;;;;;;;;;;5012525;28;20112;-73
2022/06/18 14:14:02;;;;;;;6.32;4.80;;;;;;;;;;5013313;28;20030;-73
2022/06/18 14:16:38;;;;;;;8.55;4.72;;;;;;;;;;5012120;28;20030;-75
2022/06/18 14:19:14;;;;;;;6.57;5.13;;;;;;;;;;5013664;28;20045;-72
2022/06/18 14:21:41;;;;;;;6.15;5.07;;;;;;;;;;5014047;28;20507;-72
2022/06/18 14:24:08;;;;;;;7.03;4.75;;;;;;;;;;5014188;28;20030;-74
2022/06/18 14:26:45;;;;;;;6.72;4.63;;;;;;;;;;5014125;28;20069;-74
2022/06/18 14:29:12;;;;;;;6.55;4.97;;;;;;;;;;5013907;28;20037;-72
2022/06/18 14:31:51;;;;;;;8.90;5.38;;;;;;;;;;5013708;28;20025;-73
2022/06/18 14:34:29;;;;;;;5.75;5.10;;;;;;;;;;5013741;28;20176;-76
2022/06/18 14:37:03;;;;;;;6.25;4.82;;;;;;;;;;5013716;28;20030;-75
2022/06/18 14:39:33;;;;;;;5.60;4.75;;;;;;;;;;5013879;28;20500;-73
2022/06/18 14:42:38;;;;;;;7.22;4.75;;;;;;;;;;5013789;28;20034;-76
2022/06/18 14:45:15;;;;;;;7.28;4.75;;;;;;;;;;5022348;28;20046;-74
2022/06/18 14:47:48;;;;;;;7.65;5.05;;;;;;;;;;5013594;28;20041;-74
2022/06/18 14:50:58;;;;;;;7.68;4.95;;;;;;;;;;5013481;28;20041;-74
2022/06/18 14:53:57;;;;;;;8.60;4.97;;;;;;;;;;5014127;28;20042;-72
2022/06/18 14:56:55;;;;;;;6.78;4.80;;;;;;;;;;5013461;28;20091;-72
2022/06/18 14:59:48;;;;;;;7.45;4.75;;;;;;;;;;5013254;28;20034;-73
2022/06/18 15:02:25;;;;;;;;;;;;;;;;;;5013972;28;20468;-74
2022/06/18 15:04:57;;;;;;;5.88;4.10;;;;;;;;;;5013408;28;20012;-75
2022/06/18 15:07:31;;;;;;;12.20;4.97;;;;;;;;;;5013042;28;20038;-72
2022/06/18 15:10:05;;;;;;;7.47;4.57;;;;;;;;;;5012635;28;20053;-72
2022/06/18 15:12:31;;;;;;;5.82;4.53;;;;;;;;;;5013489;28;20109;-72
2022/06/18 15:14:58;;;;;;;5.50;4.20;;;;;;;;;;5013228;28;20416;-73
2022/06/18 15:25:32;;;;;;;8.65;4.70;;;;;;;;;;5012809;28;20054;-70
2022/06/18 15:28:08;;;;;;;6.75;4.60;;;;;;;;;;5010098;28;20088;-71
2022/06/18 15:30:36;;;;;;;5.97;4.20;;;;;;;;;;5012500;28;20491;-70
2022/06/18 15:33:10;;;;;;;8.55;4.63;;;;;;;;;;5012141;28;20148;-70
2022/06/18 15:35:39;;;;;;;6.10;4.85;;;;;;;;;;5012641;28;20036;-71
2022/06/18 15:38:07;;;;;;;6.93;4.03;;;;;;;;;;5012177;28;20488;-71
2022/06/18 15:40:40;;;;;;;5.45;4.40;;;;;;;;;;5008423;28;20042;-74
2022/06/18 15:43:18;;;;;;;8.20;4.47;;;;;;;;;;5011640;28;20025;-71
2022/06/18 15:45:51;;;;;;;7.20;4.32;;;;;;;;;;5017392;28;20088;-73
2022/06/18 15:48:24;;;;;;;4.70;4.20;;;;;;;;;;5017343;28;20046;-73